createdAt,value
2019-06-10T00:00:44.339Z,17.79
2019-06-10T00:01:44.226Z,17.79
2019-06-10T00:02:44.205Z,17.81
2019-06-10T00:03:44.183Z,17.77
2019-06-10T00:04:44.161Z,17.82
2019-06-10T00:05:44.138Z,17.86
2019-06-10T00:06:44.115Z,17.78
2019-06-10T00:07:44.094Z,17.84
2019-06-10T00:08:44.072Z,17.87
2019-06-10T00:09:44.052Z,17.81
2019-06-10T00:10:44.028Z,17.72
2019-06-10T00:11:44.005Z,17.77
2019-06-10T00:12:43.986Z,17.79
2019-06-10T00:13:43.962Z,17.79
2019-06-10T00:14:43.940Z,17.77
2019-06-10T00:15:43.917Z,17.77
2019-06-10T00:16:43.898Z,17.82
2019-06-10T00:17:54.846Z,17.84
2019-06-10T00:18:45.699Z,17.81
2019-06-10T00:19:43.831Z,17.82
2019-06-10T00:20:43.808Z,17.81
2019-06-10T00:21:43.785Z,17.77
2019-06-10T00:22:43.763Z,17.79
2019-06-10T00:23:43.741Z,17.81
2019-06-10T00:24:43.721Z,17.90
2019-06-10T00:25:43.697Z,17.82
2019-06-10T00:26:43.674Z,17.82
2019-06-10T00:27:43.654Z,17.79
2019-06-10T00:28:43.632Z,17.82
2019-06-10T00:29:43.607Z,17.75
2019-06-10T00:30:43.586Z,17.84
2019-06-10T00:31:43.565Z,17.87
2019-06-10T00:32:43.541Z,17.81
2019-06-10T00:33:43.518Z,17.77
2019-06-10T00:34:43.497Z,17.77
2019-06-10T00:35:43.475Z,17.72
2019-06-10T00:36:43.457Z,17.72
2019-06-10T00:37:43.430Z,17.70
2019-06-10T00:38:43.409Z,17.66
2019-06-10T00:39:43.397Z,17.59
2019-06-10T00:40:43.374Z,17.68
2019-06-10T00:41:43.344Z,17.56
2019-06-10T00:42:43.320Z,17.62
2019-06-10T00:43:43.299Z,17.62
2019-06-10T00:44:43.277Z,17.66
2019-06-10T00:45:43.255Z,17.68
2019-06-10T00:46:43.232Z,17.63
2019-06-10T00:47:43.215Z,17.59
2019-06-10T00:48:43.188Z,17.59
2019-06-10T00:49:43.170Z,17.70
2019-06-10T00:50:43.145Z,17.63
2019-06-10T00:51:43.121Z,17.70
2019-06-10T00:52:45.279Z,17.63
2019-06-10T00:53:43.076Z,17.66
2019-06-10T00:54:43.055Z,17.63
2019-06-10T00:55:43.033Z,17.51
2019-06-10T00:56:43.011Z,17.59
2019-06-10T00:57:42.987Z,17.56
2019-06-10T00:58:42.969Z,17.58
2019-06-10T00:59:42.947Z,17.56
2019-06-10T01:00:42.923Z,17.44
2019-06-10T01:01:42.900Z,17.44
2019-06-10T01:02:42.882Z,17.43
2019-06-10T01:03:42.857Z,17.41
2019-06-10T01:04:42.833Z,17.40
2019-06-10T01:05:42.819Z,17.40
2019-06-10T01:06:42.798Z,17.38
2019-06-10T01:07:42.766Z,17.30
2019-06-10T01:08:42.744Z,17.33
2019-06-10T01:09:42.723Z,17.31
2019-06-10T01:10:44.247Z,17.40
2019-06-10T01:11:42.679Z,17.30
2019-06-10T01:12:42.654Z,17.37
2019-06-10T01:13:42.632Z,17.33
2019-06-10T01:14:42.610Z,17.36
2019-06-10T01:15:42.590Z,17.36
2019-06-10T01:16:42.566Z,17.34
2019-06-10T01:17:42.541Z,17.26
2019-06-10T01:18:42.521Z,17.31
2019-06-10T01:19:42.498Z,17.31
2019-06-10T01:20:42.491Z,17.28
2019-06-10T01:21:42.453Z,17.19
2019-06-10T01:22:42.431Z,17.23
2019-06-10T01:23:42.415Z,17.31
2019-06-10T01:24:42.386Z,17.28
2019-06-10T01:25:42.753Z,17.28
2019-06-10T01:26:42.342Z,17.34
2019-06-10T01:27:42.318Z,17.26
2019-06-10T01:28:42.296Z,17.34
2019-06-10T01:29:42.273Z,17.34
2019-06-10T01:30:42.252Z,17.30
2019-06-10T01:31:42.227Z,17.26
2019-06-10T01:32:42.208Z,17.31
2019-06-10T01:33:42.182Z,17.36
2019-06-10T01:34:42.160Z,17.26
2019-06-10T01:35:42.139Z,17.30
2019-06-10T01:36:42.115Z,17.28
2019-06-10T01:37:42.091Z,17.26
2019-06-10T01:38:42.074Z,17.31
2019-06-10T01:39:42.057Z,17.28
2019-06-10T01:40:42.457Z,17.28
2019-06-10T01:41:42.003Z,17.31
2019-06-10T01:42:41.980Z,17.19
2019-06-10T01:43:41.957Z,17.25
2019-06-10T01:44:41.942Z,17.23
2019-06-10T01:45:42.277Z,17.25
2019-06-10T01:46:41.890Z,17.21
2019-06-10T01:47:41.870Z,17.19
2019-06-10T01:48:47.948Z,17.19
2019-06-10T01:49:41.823Z,17.22
2019-06-10T01:50:41.801Z,17.21
2019-06-10T01:51:41.778Z,17.21
2019-06-10T01:52:41.756Z,17.26
2019-06-10T01:53:41.732Z,17.25
2019-06-10T01:54:42.134Z,17.25
2019-06-10T01:55:42.103Z,17.19
2019-06-10T01:56:41.666Z,17.23
2019-06-10T01:57:41.643Z,17.21
2019-06-10T01:58:41.641Z,17.22
2019-06-10T01:59:41.597Z,17.22
2019-06-10T02:00:41.888Z,17.19
2019-06-10T02:01:41.552Z,17.19
2019-06-10T02:02:44.760Z,17.23
2019-06-10T02:03:41.642Z,17.23
2019-06-10T02:04:41.486Z,17.21
2019-06-10T02:05:42.054Z,17.19
2019-06-10T02:06:41.439Z,17.18
2019-06-10T02:07:41.417Z,17.11
2019-06-10T02:08:41.874Z,17.18
2019-06-10T02:09:41.373Z,17.18
2019-06-10T02:10:41.632Z,17.16
2019-06-10T02:11:41.589Z,17.12
2019-06-10T02:12:41.615Z,17.19
2019-06-10T02:13:41.282Z,17.21
2019-06-10T02:14:41.671Z,17.14
2019-06-10T02:15:41.242Z,17.16
2019-06-10T02:16:41.561Z,17.18
2019-06-10T02:17:41.727Z,17.15
2019-06-10T02:18:54.409Z,17.19
2019-06-10T02:19:41.513Z,17.23
2019-06-10T02:20:41.330Z,17.18
2019-06-10T02:21:41.734Z,17.22
2019-06-10T02:22:41.278Z,17.19
2019-06-10T02:23:41.235Z,17.26
2019-06-10T02:24:41.655Z,17.16
2019-06-10T02:25:41.335Z,17.31
2019-06-10T02:26:41.179Z,17.30
2019-06-10T02:27:41.523Z,17.26
2019-06-10T02:28:40.946Z,17.26
2019-06-10T02:29:41.270Z,17.28
2019-06-10T02:30:50.323Z,17.31
2019-06-10T02:31:43.309Z,17.31
2019-06-10T02:32:42.839Z,17.26
2019-06-10T02:33:42.026Z,17.33
2019-06-10T02:34:53.621Z,17.25
2019-06-10T02:35:48.404Z,17.30
2019-06-10T02:36:44.229Z,17.28
2019-06-10T02:37:44.228Z,17.31
2019-06-10T02:38:44.218Z,17.22
2019-06-10T02:39:43.773Z,17.19
2019-06-10T02:40:43.334Z,17.26
2019-06-10T02:41:44.231Z,17.19
2019-06-10T02:42:43.556Z,17.30
2019-06-10T02:43:43.814Z,17.30
2019-06-10T02:44:44.175Z,17.33
2019-06-10T02:45:44.204Z,17.21
2019-06-10T02:46:43.971Z,17.19
2019-06-10T02:47:44.024Z,17.23
2019-06-10T02:48:43.358Z,17.23
2019-06-10T02:49:55.837Z,17.19
2019-06-10T02:50:43.856Z,17.18
2019-06-10T02:51:43.457Z,17.28
2019-06-10T02:52:44.073Z,17.25
2019-06-10T02:53:43.098Z,17.21
2019-06-10T02:54:43.703Z,17.25
2019-06-10T02:55:43.223Z,17.21
2019-06-10T02:56:43.902Z,17.14
2019-06-10T02:57:40.812Z,17.18
2019-06-10T02:58:44.509Z,17.19
2019-06-10T02:59:43.419Z,17.23
2019-06-10T03:00:47.484Z,17.25
2019-06-10T03:01:43.579Z,17.21
2019-06-10T03:02:44.525Z,17.18
2019-06-10T03:03:45.912Z,17.19
2019-06-10T03:04:43.132Z,17.16
2019-06-10T03:05:41.304Z,17.21
2019-06-10T03:06:44.031Z,17.23
2019-06-10T03:07:40.065Z,17.21
2019-06-10T03:08:43.389Z,17.23
2019-06-10T03:09:42.588Z,17.23
2019-06-10T03:10:43.437Z,17.18
2019-06-10T03:11:40.216Z,17.22
2019-06-10T03:12:42.278Z,17.19
2019-06-10T03:13:39.954Z,17.23
2019-06-10T03:14:42.154Z,17.28
2019-06-10T03:15:39.885Z,17.23
2019-06-10T03:16:42.192Z,17.18
2019-06-10T03:17:39.840Z,17.22
2019-06-10T03:18:39.818Z,17.31
2019-06-10T03:19:47.878Z,17.28
2019-06-10T03:20:39.773Z,17.26
2019-06-10T03:21:39.749Z,17.26
2019-06-10T03:22:42.141Z,17.25
2019-06-10T03:23:39.705Z,17.26
2019-06-10T03:24:42.045Z,17.25
2019-06-10T03:25:39.660Z,17.31
2019-06-10T03:26:39.639Z,17.31
2019-06-10T03:27:42.256Z,17.26
2019-06-10T03:28:39.593Z,17.31
2019-06-10T03:29:42.034Z,17.25
2019-06-10T03:30:52.338Z,17.25
2019-06-10T03:31:43.154Z,17.26
2019-06-10T03:32:42.657Z,17.28
2019-06-10T03:33:42.035Z,17.30
2019-06-10T03:34:45.868Z,17.26
2019-06-10T03:35:39.438Z,17.30
2019-06-10T03:36:39.413Z,17.26
2019-06-10T03:37:39.389Z,17.34
2019-06-10T03:38:39.370Z,17.30
2019-06-10T03:39:39.346Z,17.33
2019-06-10T03:40:39.324Z,17.31
2019-06-10T03:41:39.300Z,17.31
2019-06-10T03:42:39.278Z,17.33
2019-06-10T03:43:39.256Z,17.31
2019-06-10T03:44:39.233Z,17.30
2019-06-10T03:45:39.213Z,17.31
2019-06-10T03:46:39.188Z,17.26
2019-06-10T03:47:39.166Z,17.23
2019-06-10T03:48:39.144Z,17.31
2019-06-10T03:49:49.835Z,17.31
2019-06-10T03:50:39.100Z,17.21
2019-06-10T03:51:39.080Z,17.19
2019-06-10T03:52:39.053Z,17.16
2019-06-10T03:53:39.030Z,17.19
2019-06-10T03:54:39.010Z,17.19
2019-06-10T03:55:38.988Z,17.18
2019-06-10T03:56:38.964Z,17.28
2019-06-10T03:57:38.942Z,17.21
2019-06-10T03:58:38.920Z,17.26
2019-06-10T03:59:38.897Z,17.21
2019-06-10T04:00:38.877Z,17.23
2019-06-10T04:01:38.851Z,17.22
2019-06-10T04:02:38.830Z,17.15
2019-06-10T04:03:38.808Z,17.28
2019-06-10T04:04:38.786Z,17.21
2019-06-10T04:05:38.767Z,17.19
2019-06-10T04:06:38.752Z,17.21
2019-06-10T04:07:38.720Z,17.21
2019-06-10T04:08:38.695Z,17.18
2019-06-10T04:09:38.672Z,17.23
2019-06-10T04:10:38.652Z,17.18
2019-06-10T04:11:38.735Z,17.23
2019-06-10T04:12:38.607Z,17.19
2019-06-10T04:13:38.585Z,17.14
2019-06-10T04:14:38.563Z,17.22
2019-06-10T04:15:38.539Z,17.18
2019-06-10T04:16:38.517Z,17.18
2019-06-10T04:17:38.498Z,17.18
2019-06-10T04:18:38.471Z,17.21
2019-06-10T04:19:38.448Z,17.25
2019-06-10T04:20:38.428Z,17.22
2019-06-10T04:21:38.416Z,17.19
2019-06-10T04:22:38.385Z,17.23
2019-06-10T04:23:38.359Z,17.15
2019-06-10T04:24:38.340Z,17.18
2019-06-10T04:25:38.314Z,17.22
2019-06-10T04:26:38.292Z,17.28
2019-06-10T04:27:38.271Z,17.28
2019-06-10T04:28:38.250Z,17.19
2019-06-10T04:29:38.226Z,17.34
2019-06-10T04:30:38.215Z,17.31
2019-06-10T04:31:38.206Z,17.33
2019-06-10T04:32:38.158Z,17.33
2019-06-10T04:33:38.136Z,17.34
2019-06-10T04:34:38.113Z,17.37
2019-06-10T04:35:38.091Z,17.34
2019-06-10T04:36:38.070Z,17.34
2019-06-10T04:37:38.046Z,17.30
2019-06-10T04:38:38.022Z,17.28
2019-06-10T04:39:37.999Z,17.37
2019-06-10T04:40:37.980Z,17.36
2019-06-10T04:41:38.077Z,17.36
2019-06-10T04:42:37.934Z,17.38
2019-06-10T04:43:37.912Z,17.36
2019-06-10T04:44:37.890Z,17.34
2019-06-10T04:45:37.867Z,17.40
2019-06-10T04:46:37.845Z,17.30
2019-06-10T04:47:37.822Z,17.30
2019-06-10T04:48:37.800Z,17.37
2019-06-10T04:49:37.776Z,17.36
2019-06-10T04:50:45.502Z,17.38
2019-06-10T04:51:37.785Z,17.36
2019-06-10T04:52:37.712Z,17.33
2019-06-10T04:53:40.305Z,17.36
2019-06-10T04:54:37.665Z,17.44
2019-06-10T04:55:37.644Z,17.52
2019-06-10T04:56:37.622Z,17.43
2019-06-10T04:57:37.607Z,17.46
2019-06-10T04:58:37.577Z,17.46
2019-06-10T04:59:37.555Z,17.48
2019-06-10T05:00:37.532Z,17.48
2019-06-10T05:01:37.551Z,17.43
2019-06-10T05:02:37.487Z,17.44
2019-06-10T05:03:37.465Z,17.41
2019-06-10T05:04:37.446Z,17.48
2019-06-10T05:05:37.421Z,17.44
2019-06-10T05:06:37.400Z,17.46
2019-06-10T05:07:37.377Z,17.48
2019-06-10T05:08:37.384Z,17.51
2019-06-10T05:09:37.334Z,17.41
2019-06-10T05:10:37.311Z,17.49
2019-06-10T05:11:37.307Z,17.49
2019-06-10T05:12:37.267Z,17.54
2019-06-10T05:13:37.245Z,17.52
2019-06-10T05:14:37.223Z,17.54
2019-06-10T05:15:37.201Z,17.54
2019-06-10T05:16:37.181Z,17.55
2019-06-10T05:17:37.157Z,17.52
2019-06-10T05:18:37.136Z,17.54
2019-06-10T05:19:37.114Z,17.51
2019-06-10T05:20:54.217Z,17.52
2019-06-10T05:21:37.147Z,17.56
2019-06-10T05:22:37.047Z,17.58
2019-06-10T05:23:37.027Z,17.56
2019-06-10T05:24:37.005Z,17.64
2019-06-10T05:25:36.982Z,17.66
2019-06-10T05:26:36.960Z,17.70
2019-06-10T05:27:36.937Z,17.74
2019-06-10T05:28:36.917Z,17.75
2019-06-10T05:29:36.895Z,17.77
2019-06-10T05:30:36.873Z,17.75
2019-06-10T05:31:36.852Z,17.81
2019-06-10T05:32:36.830Z,17.87
2019-06-10T05:33:36.807Z,17.90
2019-06-10T05:34:36.788Z,18.02
2019-06-10T05:35:36.764Z,18.02
2019-06-10T05:36:36.743Z,18.15
2019-06-10T05:37:36.721Z,18.18
2019-06-10T05:38:36.699Z,18.32
2019-06-10T05:39:36.679Z,18.35
2019-06-10T05:40:36.658Z,18.41
2019-06-10T05:41:36.636Z,18.51
2019-06-10T05:42:36.624Z,18.54
2019-06-10T05:43:36.592Z,18.80
2019-06-10T05:44:36.572Z,18.98
2019-06-10T05:45:36.549Z,19.14
2019-06-10T05:46:36.528Z,19.41
2019-06-10T05:47:36.508Z,20.11
2019-06-10T05:48:36.486Z,20.84
2019-06-10T05:49:36.469Z,21.82
2019-06-10T05:50:36.445Z,22.17
2019-06-10T05:51:36.427Z,22.31
2019-06-10T05:52:36.412Z,22.86
2019-06-10T05:53:36.385Z,23.31
2019-06-10T05:54:36.364Z,23.00
2019-06-10T05:55:36.347Z,23.28
2019-06-10T05:56:36.333Z,23.28
2019-06-10T05:57:36.308Z,22.62
2019-06-10T05:58:36.288Z,22.22
2019-06-10T05:59:36.271Z,21.75
2019-06-10T06:00:36.252Z,21.56
2019-06-10T06:01:38.260Z,21.13
2019-06-10T06:02:36.215Z,20.80
2019-06-10T06:03:37.069Z,20.55
2019-06-10T06:04:36.216Z,20.32
2019-06-10T06:05:37.979Z,20.17
2019-06-10T06:06:37.412Z,19.98
2019-06-10T06:07:36.121Z,19.99
2019-06-10T06:08:36.102Z,19.84
2019-06-10T06:09:36.085Z,19.68
2019-06-10T06:10:36.115Z,19.66
2019-06-10T06:11:36.045Z,19.77
2019-06-10T06:12:36.027Z,19.71
2019-06-10T06:13:36.152Z,19.69
2019-06-10T06:14:36.203Z,19.84
2019-06-10T06:15:35.971Z,19.92
2019-06-10T06:16:36.294Z,19.83
2019-06-10T06:17:35.932Z,19.98
2019-06-10T06:18:36.502Z,19.92
2019-06-10T06:19:38.408Z,20.01
2019-06-10T06:20:36.035Z,20.17
2019-06-10T06:21:41.869Z,20.31
2019-06-10T06:22:35.832Z,20.39
2019-06-10T06:23:37.088Z,20.61
2019-06-10T06:24:35.822Z,20.58
2019-06-10T06:25:39.807Z,20.59
2019-06-10T06:26:38.062Z,20.61
2019-06-10T06:27:37.060Z,20.72
2019-06-10T06:28:36.182Z,20.76
2019-06-10T06:29:37.051Z,20.70
2019-06-10T06:30:36.436Z,20.69
2019-06-10T06:31:36.486Z,20.66
2019-06-10T06:32:36.951Z,20.66
2019-06-10T06:33:38.033Z,20.66
2019-06-10T06:34:38.342Z,20.76
2019-06-10T06:35:42.730Z,20.80
2019-06-10T06:36:38.012Z,20.82
2019-06-10T06:37:37.724Z,20.82
2019-06-10T06:38:37.193Z,20.91
2019-06-10T06:39:37.064Z,20.77
2019-06-10T06:40:37.320Z,20.72
2019-06-10T06:41:37.190Z,20.77
2019-06-10T06:42:36.775Z,20.48
2019-06-10T06:43:38.964Z,20.35
2019-06-10T06:44:37.655Z,20.21
2019-06-10T06:45:37.290Z,20.17
2019-06-10T06:46:37.859Z,20.32
2019-06-10T06:47:37.119Z,20.64
2019-06-10T06:48:38.346Z,20.80
2019-06-10T06:49:36.817Z,21.29
2019-06-10T06:50:36.178Z,21.72
2019-06-10T06:51:47.708Z,21.67
2019-06-10T06:53:04.960Z,21.17
2019-06-10T06:53:45.468Z,21.16
2019-06-10T06:54:36.238Z,20.97
2019-06-10T06:55:36.542Z,20.88
2019-06-10T06:56:37.375Z,21.01
2019-06-10T06:57:36.774Z,21.03
2019-06-10T06:58:36.913Z,21.10
2019-06-10T06:59:36.925Z,21.16
2019-06-10T07:00:51.004Z,21.16
2019-06-10T07:01:37.628Z,21.10
2019-06-10T07:02:37.210Z,21.19
2019-06-10T07:03:38.104Z,21.32
2019-06-10T07:04:35.873Z,21.53
2019-06-10T07:05:35.979Z,21.67
2019-06-10T07:06:36.031Z,21.99
2019-06-10T07:07:36.019Z,22.21
2019-06-10T07:08:37.542Z,22.35
2019-06-10T07:09:36.178Z,22.60
2019-06-10T07:10:36.128Z,22.75
2019-06-10T07:11:37.393Z,22.54
2019-06-10T07:12:36.451Z,22.51
2019-06-10T07:13:37.118Z,22.64
2019-06-10T07:14:37.303Z,22.52
2019-06-10T07:15:37.722Z,22.75
2019-06-10T07:16:38.651Z,22.79
2019-06-10T07:17:37.394Z,22.83
2019-06-10T07:18:41.155Z,22.67
2019-06-10T07:19:37.952Z,22.72
2019-06-10T07:20:37.605Z,22.79
2019-06-10T07:21:51.465Z,22.65
2019-06-10T07:22:36.888Z,22.98
2019-06-10T07:23:38.877Z,23.70
2019-06-10T07:24:37.900Z,24.27
2019-06-10T07:25:37.339Z,25.09
2019-06-10T07:26:40.535Z,25.08
2019-06-10T07:27:37.567Z,25.36
2019-06-10T07:28:37.452Z,25.43
2019-06-10T07:29:37.415Z,25.64
2019-06-10T07:30:37.653Z,25.00
2019-06-10T07:31:36.418Z,25.03
2019-06-10T07:32:37.344Z,24.99
2019-06-10T07:33:37.373Z,25.45
2019-06-10T07:34:36.724Z,25.25
2019-06-10T07:35:35.737Z,24.87
2019-06-10T07:36:35.624Z,25.15
2019-06-10T07:37:34.999Z,25.36
2019-06-10T07:38:37.204Z,25.36
2019-06-10T07:39:36.468Z,25.51
2019-06-10T07:40:35.916Z,25.30
2019-06-10T07:41:35.631Z,25.47
2019-06-10T07:42:34.911Z,24.69
2019-06-10T07:43:38.267Z,24.20
2019-06-10T07:44:34.908Z,23.83
2019-06-10T07:45:37.761Z,23.57
2019-06-10T07:46:36.044Z,23.51
2019-06-10T07:47:35.321Z,23.23
2019-06-10T07:48:36.508Z,23.22
2019-06-10T07:49:35.378Z,23.42
2019-06-10T07:50:34.994Z,23.58
2019-06-10T07:51:35.788Z,23.60
2019-06-10T07:52:35.603Z,23.57
2019-06-10T07:53:36.325Z,23.57
2019-06-10T07:54:34.808Z,23.73
2019-06-10T07:55:35.012Z,23.72
2019-06-10T07:56:38.875Z,23.75
2019-06-10T07:57:34.738Z,23.65
2019-06-10T07:58:36.493Z,23.58
2019-06-10T07:59:35.323Z,24.03
2019-06-10T08:00:36.233Z,24.50
2019-06-10T08:01:35.103Z,24.71
2019-06-10T08:02:34.416Z,25.06
2019-06-10T08:03:35.261Z,25.50
2019-06-10T08:04:35.239Z,25.82
2019-06-10T08:05:34.291Z,25.67
2019-06-10T08:06:36.106Z,25.27
2019-06-10T08:07:35.184Z,25.13
2019-06-10T08:08:34.820Z,25.03
2019-06-10T08:09:35.697Z,24.84
2019-06-10T08:10:35.006Z,24.83
2019-06-10T08:11:35.142Z,24.45
2019-06-10T08:12:35.061Z,24.39
2019-06-10T08:13:35.175Z,24.28
2019-06-10T08:14:33.879Z,24.00
2019-06-10T08:15:33.866Z,23.93
2019-06-10T08:16:33.847Z,23.78
2019-06-10T08:17:33.831Z,23.70
2019-06-10T08:18:44.721Z,23.76
2019-06-10T08:19:37.789Z,23.63
2019-06-10T08:20:34.925Z,23.61
2019-06-10T08:21:33.769Z,23.47
2019-06-10T08:22:39.908Z,23.36
2019-06-10T08:23:33.745Z,23.50
2019-06-10T08:24:33.723Z,23.53
2019-06-10T08:25:33.704Z,23.51
2019-06-10T08:26:33.689Z,23.22
2019-06-10T08:27:33.738Z,23.35
2019-06-10T08:28:33.656Z,23.36
2019-06-10T08:29:33.650Z,23.16
2019-06-10T08:30:33.628Z,23.15
2019-06-10T08:31:33.608Z,23.13
2019-06-10T08:32:33.766Z,23.04
2019-06-10T08:33:33.574Z,23.31
2019-06-10T08:34:33.558Z,23.60
2019-06-10T08:35:41.993Z,23.75
2019-06-10T08:36:33.553Z,23.83
2019-06-10T08:37:33.508Z,23.94
2019-06-10T08:38:33.493Z,24.20
2019-06-10T08:39:33.688Z,24.35
2019-06-10T08:40:33.461Z,24.60
2019-06-10T08:41:33.442Z,24.62
2019-06-10T08:42:33.428Z,24.71
2019-06-10T08:43:33.412Z,24.77
2019-06-10T08:44:33.395Z,24.45
2019-06-10T08:45:33.489Z,24.31
2019-06-10T08:46:33.363Z,24.52
2019-06-10T08:47:33.347Z,24.73
2019-06-10T08:48:33.332Z,24.85
2019-06-10T08:49:33.316Z,24.99
2019-06-10T08:50:33.828Z,25.08
2019-06-10T08:51:33.285Z,25.17
2019-06-10T08:52:48.918Z,25.17
2019-06-10T08:53:33.324Z,25.08
2019-06-10T08:54:33.238Z,25.08
2019-06-10T08:55:33.547Z,25.38
2019-06-10T08:56:33.206Z,25.82
2019-06-10T08:57:33.560Z,26.70
2019-06-10T08:58:33.297Z,27.09
2019-06-10T08:59:33.250Z,27.93
2019-06-10T09:00:33.786Z,28.46
2019-06-10T09:01:33.601Z,28.34
2019-06-10T09:02:33.502Z,28.88
2019-06-10T09:03:33.102Z,28.44
2019-06-10T09:04:33.231Z,28.19
2019-06-10T09:05:33.073Z,28.62
2019-06-10T09:06:33.159Z,28.44
2019-06-10T09:07:33.045Z,28.43
2019-06-10T09:08:33.031Z,28.21
2019-06-10T09:09:33.634Z,28.37
2019-06-10T09:10:33.931Z,28.22
2019-06-10T09:11:33.023Z,28.56
2019-06-10T09:12:36.548Z,28.58
2019-06-10T09:13:33.807Z,28.67
2019-06-10T09:14:32.948Z,28.30
2019-06-10T09:15:32.935Z,28.39
2019-06-10T09:16:33.050Z,28.41
2019-06-10T09:17:33.891Z,28.41
2019-06-10T09:18:33.879Z,28.90
2019-06-10T09:19:33.332Z,29.27
2019-06-10T09:20:33.270Z,29.70
2019-06-10T09:21:33.195Z,29.02
2019-06-10T09:22:32.850Z,29.51
2019-06-10T09:23:33.265Z,29.30
2019-06-10T09:24:32.929Z,29.04
2019-06-10T09:25:33.529Z,28.88
2019-06-10T09:26:33.838Z,28.90
2019-06-10T09:27:32.878Z,28.98
2019-06-10T09:28:33.088Z,28.92
2019-06-10T09:29:32.999Z,29.18
2019-06-10T09:30:33.382Z,28.41
2019-06-10T09:31:33.146Z,27.87
2019-06-10T09:32:32.715Z,28.49
2019-06-10T09:33:33.211Z,28.56
2019-06-10T09:34:33.197Z,28.43
2019-06-10T09:35:32.676Z,28.68
2019-06-10T09:36:32.680Z,28.93
2019-06-10T09:37:32.650Z,29.11
2019-06-10T09:38:33.525Z,29.02
2019-06-10T09:39:32.938Z,29.33
2019-06-10T09:40:33.338Z,29.04
2019-06-10T09:41:41.064Z,28.96
2019-06-10T09:42:33.295Z,29.24
2019-06-10T09:43:33.251Z,29.71
2019-06-10T09:44:33.372Z,29.55
2019-06-10T09:45:33.292Z,29.26
2019-06-10T09:46:33.252Z,28.85
2019-06-10T09:47:34.709Z,28.00
2019-06-10T09:48:33.523Z,27.31
2019-06-10T09:49:33.569Z,27.02
2019-06-10T09:50:33.424Z,27.04
2019-06-10T09:51:32.613Z,27.10
2019-06-10T09:52:32.977Z,27.37
2019-06-10T09:53:41.293Z,27.60
2019-06-10T09:54:33.578Z,27.70
2019-06-10T09:55:32.924Z,27.85
2019-06-10T09:56:33.108Z,27.63
2019-06-10T09:57:32.398Z,27.36
2019-06-10T09:58:33.105Z,27.34
2019-06-10T09:59:32.436Z,27.34
2019-06-10T10:00:33.151Z,28.04
2019-06-10T10:01:32.749Z,27.92
2019-06-10T10:02:33.166Z,27.99
2019-06-10T10:03:33.051Z,28.15
2019-06-10T10:04:32.838Z,28.49
2019-06-10T10:05:33.794Z,28.25
2019-06-10T10:06:32.809Z,27.90
2019-06-10T10:07:32.513Z,27.47
2019-06-10T10:08:32.705Z,27.04
2019-06-10T10:09:36.677Z,26.72
2019-06-10T10:10:32.795Z,26.60
2019-06-10T10:11:32.225Z,26.35
2019-06-10T10:12:32.821Z,26.37
2019-06-10T10:13:35.356Z,26.43
2019-06-10T10:14:33.457Z,26.62
2019-06-10T10:15:34.528Z,26.73
2019-06-10T10:16:33.975Z,27.07
2019-06-10T10:17:33.411Z,26.94
2019-06-10T10:18:33.454Z,27.02
2019-06-10T10:19:32.097Z,26.75
2019-06-10T10:20:34.085Z,27.07
2019-06-10T10:21:32.069Z,27.06
2019-06-10T10:22:33.616Z,27.09
2019-06-10T10:23:49.600Z,27.24
2019-06-10T10:24:34.074Z,26.99
2019-06-10T10:25:32.829Z,27.04
2019-06-10T10:26:31.999Z,27.21
2019-06-10T10:27:32.427Z,27.39
2019-06-10T10:28:33.439Z,27.39
2019-06-10T10:29:32.833Z,26.97
2019-06-10T10:30:33.189Z,26.75
2019-06-10T10:31:32.502Z,26.35
2019-06-10T10:32:33.410Z,26.70
2019-06-10T10:33:33.366Z,27.06
2019-06-10T10:34:33.317Z,27.34
2019-06-10T10:35:32.639Z,27.31
2019-06-10T10:36:33.525Z,27.63
2019-06-10T10:37:32.754Z,27.75
2019-06-10T10:38:34.541Z,28.04
2019-06-10T10:39:32.713Z,28.03
2019-06-10T10:40:32.567Z,28.22
2019-06-10T10:41:32.333Z,28.00
2019-06-10T10:42:42.721Z,27.93
2019-06-10T10:43:34.061Z,27.85
2019-06-10T10:44:32.005Z,27.65
2019-06-10T10:45:31.735Z,27.19
2019-06-10T10:46:32.624Z,27.28
2019-06-10T10:47:33.586Z,27.77
2019-06-10T10:48:33.593Z,28.04
2019-06-10T10:49:32.639Z,28.06
2019-06-10T10:50:34.136Z,28.27
2019-06-10T10:51:32.692Z,27.62
2019-06-10T10:52:33.075Z,27.59
2019-06-10T10:53:32.818Z,27.62
2019-06-10T10:54:35.994Z,27.21
2019-06-10T10:55:33.376Z,27.60
2019-06-10T10:56:33.468Z,28.07
2019-06-10T10:57:33.044Z,28.70
2019-06-10T10:58:33.041Z,28.76
2019-06-10T10:59:33.254Z,29.24
2019-06-10T11:00:36.601Z,29.55
2019-06-10T11:01:33.295Z,29.57
2019-06-10T11:02:32.207Z,29.43
2019-06-10T11:03:33.635Z,28.67
2019-06-10T11:04:32.849Z,28.29
2019-06-10T11:05:33.301Z,27.99
2019-06-10T11:06:32.311Z,27.88
2019-06-10T11:07:33.936Z,27.66
2019-06-10T11:08:33.334Z,28.12
2019-06-10T11:09:33.033Z,28.40
2019-06-10T11:10:33.018Z,28.80
2019-06-10T11:11:33.253Z,29.18
2019-06-10T11:12:33.179Z,28.86
2019-06-10T11:13:33.314Z,29.00
2019-06-10T11:14:33.337Z,28.89
2019-06-10T11:15:33.804Z,28.89
2019-06-10T11:16:33.029Z,29.41
2019-06-10T11:17:33.687Z,29.73
2019-06-10T11:18:33.561Z,29.18
2019-06-10T11:19:32.840Z,29.06
2019-06-10T11:20:33.526Z,28.68
2019-06-10T11:21:33.043Z,28.06
2019-06-10T11:22:32.820Z,28.09
2019-06-10T11:23:34.229Z,27.78
2019-06-10T11:24:37.751Z,27.99
2019-06-10T11:25:33.201Z,27.72
2019-06-10T11:26:32.834Z,27.57
2019-06-10T11:27:33.150Z,27.65
2019-06-10T11:28:32.125Z,27.43
2019-06-10T11:29:32.865Z,27.07
2019-06-10T11:30:32.417Z,27.32
2019-06-10T11:31:32.852Z,27.19
2019-06-10T11:32:32.784Z,26.94
2019-06-10T11:33:32.902Z,27.24
2019-06-10T11:34:33.269Z,27.70
2019-06-10T11:35:31.058Z,27.87
2019-06-10T11:36:31.044Z,28.07
2019-06-10T11:37:31.029Z,28.03
2019-06-10T11:38:32.909Z,28.03
2019-06-10T11:39:33.020Z,28.11
2019-06-10T11:40:33.887Z,28.03
2019-06-10T11:41:32.493Z,28.17
2019-06-10T11:42:33.385Z,28.19
2019-06-10T11:43:33.100Z,28.41
2019-06-10T11:44:33.195Z,28.59
2019-06-10T11:45:32.869Z,27.97
2019-06-10T11:46:32.566Z,28.19
2019-06-10T11:47:32.901Z,28.19
2019-06-10T11:48:32.830Z,28.59
2019-06-10T11:49:30.863Z,28.56
2019-06-10T11:50:33.264Z,28.83
2019-06-10T11:51:30.836Z,28.73
2019-06-10T11:52:33.481Z,28.27
2019-06-10T11:53:31.202Z,28.73
2019-06-10T11:54:33.996Z,29.37
2019-06-10T11:55:32.759Z,29.80
2019-06-10T11:56:33.504Z,29.94
2019-06-10T11:57:32.953Z,29.71
2019-06-10T11:58:33.083Z,29.41
2019-06-10T11:59:32.763Z,29.08
2019-06-10T12:00:33.051Z,28.96
2019-06-10T12:01:30.925Z,29.09
2019-06-10T12:02:32.847Z,28.95
2019-06-10T12:03:30.675Z,28.71
2019-06-10T12:04:30.663Z,28.93
2019-06-10T12:05:32.638Z,28.98
2019-06-10T12:06:33.360Z,28.81
2019-06-10T12:07:33.035Z,28.85
2019-06-10T12:08:32.871Z,29.21
2019-06-10T12:09:33.174Z,29.48
2019-06-10T12:10:32.960Z,29.21
2019-06-10T12:11:31.911Z,29.21
2019-06-10T12:12:33.516Z,28.88
2019-06-10T12:13:33.344Z,28.66
2019-06-10T12:14:32.838Z,28.85
2019-06-10T12:15:46.254Z,28.73
2019-06-10T12:17:15.398Z,28.33
2019-06-10T12:17:43.157Z,28.19
2019-06-10T12:18:33.088Z,28.06
2019-06-10T12:19:33.564Z,27.69
2019-06-10T12:20:33.252Z,27.70
2019-06-10T12:21:32.892Z,27.88
2019-06-10T12:22:32.960Z,27.88
2019-06-10T12:23:33.497Z,28.24
2019-06-10T12:24:32.874Z,28.46
2019-06-10T12:25:36.875Z,29.02
2019-06-10T12:26:30.369Z,29.34
2019-06-10T12:27:32.428Z,29.94
2019-06-10T12:28:32.690Z,30.37
2019-06-10T12:29:30.329Z,30.31
2019-06-10T12:30:30.315Z,30.60
2019-06-10T12:31:30.303Z,30.43
2019-06-10T12:32:30.290Z,30.82
2019-06-10T12:33:33.326Z,31.13
2019-06-10T12:34:32.974Z,31.34
2019-06-10T12:35:30.249Z,31.29
2019-06-10T12:36:30.239Z,31.09
2019-06-10T12:37:30.225Z,31.54
2019-06-10T12:38:32.484Z,31.93
2019-06-10T12:39:30.198Z,31.99
2019-06-10T12:40:30.188Z,32.22
2019-06-10T12:41:30.173Z,32.30
2019-06-10T12:42:32.259Z,31.96
2019-06-10T12:43:32.427Z,31.35
2019-06-10T12:44:31.324Z,30.98
2019-06-10T12:45:32.511Z,30.92
2019-06-10T12:46:32.645Z,31.07
2019-06-10T12:47:30.099Z,31.06
2019-06-10T12:48:30.089Z,31.16
2019-06-10T12:49:32.045Z,31.48
2019-06-10T12:50:30.217Z,31.73
2019-06-10T12:51:30.051Z,32.03
2019-06-10T12:52:32.390Z,32.10